createdAt,value
2022-10-07T00:01:19.500Z,56.48
2022-10-07T00:03:48.253Z,56.78
2022-10-07T00:06:19.866Z,56.75
2022-10-07T00:08:52.530Z,56.44
2022-10-07T00:11:27.237Z,56.49
2022-10-07T00:13:59.113Z,56.76
2022-10-07T00:16:33.516Z,56.66
2022-10-07T00:19:04.283Z,56.82
2022-10-07T00:21:34.249Z,56.85
2022-10-07T00:24:03.136Z,56.84
2022-10-07T00:26:34.099Z,57.27
2022-10-07T00:29:04.247Z,56.93
2022-10-07T00:31:35.908Z,56.97
2022-10-07T00:34:06.099Z,57.16
2022-10-07T00:36:37.626Z,57.12
2022-10-07T00:39:12.724Z,57.06
2022-10-07T00:41:52.925Z,57.10
2022-10-07T00:44:45.467Z,57.09
2022-10-07T00:47:30.801Z,56.99
2022-10-07T00:50:30.764Z,57.05
2022-10-07T00:53:02.648Z,56.95
2022-10-07T00:55:32.746Z,56.95
2022-10-07T00:58:09.016Z,57.04
2022-10-07T01:00:39.956Z,57.09
2022-10-07T01:03:08.950Z,57.02
2022-10-07T01:05:37.528Z,57.00
2022-10-07T01:08:06.419Z,57.07
2022-10-07T01:10:50.363Z,57.03
2022-10-07T01:13:42.809Z,57.40
2022-10-07T01:16:39.290Z,57.83
2022-10-07T01:19:23.089Z,57.50
2022-10-07T01:22:00.788Z,57.35
2022-10-07T01:24:39.304Z,57.49
2022-10-07T01:27:16.622Z,57.57
2022-10-07T01:29:59.694Z,57.53
2022-10-07T01:32:33.560Z,57.86
2022-10-07T01:35:08.860Z,57.75
2022-10-07T01:37:51.194Z,57.78
2022-10-07T01:40:32.577Z,57.49
2022-10-07T01:43:02.414Z,57.37
2022-10-07T01:45:33.064Z,57.24
2022-10-07T01:48:02.507Z,57.23
2022-10-07T01:50:32.239Z,57.20
2022-10-07T01:53:01.005Z,57.28
2022-10-07T01:56:13.012Z,57.29
2022-10-07T01:58:57.772Z,57.30
2022-10-07T02:01:58.843Z,57.47
2022-10-07T02:04:47.472Z,57.43
2022-10-07T02:07:28.652Z,57.54
2022-10-07T02:10:38.912Z,57.40
2022-10-07T02:13:16.923Z,57.42
2022-10-07T02:15:53.269Z,57.47
2022-10-07T02:18:22.073Z,57.86
2022-10-07T02:20:52.792Z,57.67
2022-10-07T02:23:25.816Z,57.61
2022-10-07T02:25:55.198Z,57.99
2022-10-07T02:28:26.334Z,57.80
2022-10-07T02:31:00.624Z,58.10
2022-10-07T02:33:31.975Z,58.07
2022-10-07T02:36:05.508Z,57.86
2022-10-07T02:38:34.513Z,57.84
2022-10-07T02:41:34.218Z,57.77
2022-10-07T02:44:21.970Z,57.87
2022-10-07T02:46:59.695Z,57.98
2022-10-07T02:49:30.690Z,57.86
2022-10-07T02:52:07.333Z,57.98
2022-10-07T02:55:02.367Z,57.84
2022-10-07T02:57:35.662Z,58.03
2022-10-07T03:00:10.914Z,58.20
2022-10-07T03:03:02.856Z,58.17
2022-10-07T03:05:38.835Z,57.87
2022-10-07T03:08:12.106Z,58.28
2022-10-07T03:10:43.434Z,58.35
2022-10-07T03:13:13.555Z,58.29
2022-10-07T03:15:43.504Z,58.44
2022-10-07T03:18:29.665Z,58.43
2022-10-07T03:21:20.090Z,58.30
2022-10-07T03:23:54.155Z,58.25
2022-10-07T03:26:25.221Z,58.10
2022-10-07T03:28:54.520Z,58.17
2022-10-07T03:31:23.517Z,58.19
2022-10-07T03:33:53.157Z,58.17
2022-10-07T03:36:23.547Z,58.09
2022-10-07T03:38:52.641Z,57.98
2022-10-07T03:41:22.071Z,58.05
2022-10-07T03:43:52.781Z,57.88
2022-10-07T03:46:24.175Z,58.08
2022-10-07T03:48:53.125Z,58.19
2022-10-07T03:51:21.814Z,58.26
2022-10-07T03:53:54.934Z,58.22
2022-10-07T03:56:24.284Z,58.17
2022-10-07T03:58:53.092Z,58.24
2022-10-07T04:01:21.806Z,58.20
2022-10-07T04:03:54.050Z,58.33
2022-10-07T04:06:22.634Z,58.18
2022-10-07T04:08:54.084Z,58.09
2022-10-07T04:11:24.579Z,58.20
2022-10-07T04:13:55.928Z,58.26
2022-10-07T04:16:26.557Z,58.38
2022-10-07T04:18:56.819Z,58.50
2022-10-07T04:21:26.018Z,58.44
2022-10-07T04:23:55.422Z,58.43
2022-10-07T04:26:24.415Z,58.34
2022-10-07T04:28:53.109Z,58.30
2022-10-07T04:31:24.230Z,58.16
2022-10-07T04:33:58.153Z,58.13
2022-10-07T04:36:30.731Z,58.21
2022-10-07T04:39:10.682Z,58.64
2022-10-07T04:41:43.364Z,58.78
2022-10-07T04:44:16.658Z,58.66
2022-10-07T04:46:58.497Z,58.84
2022-10-07T04:49:28.674Z,59.01
2022-10-07T04:51:57.360Z,59.26
2022-10-07T04:54:28.197Z,59.24
2022-10-07T04:56:57.394Z,59.28
2022-10-07T04:59:29.900Z,59.51
2022-10-07T05:01:59.427Z,59.73
2022-10-07T05:04:28.574Z,60.01
2022-10-07T05:06:58.387Z,60.00
2022-10-07T05:09:27.891Z,59.38
2022-10-07T05:11:58.220Z,59.09
2022-10-07T05:14:26.907Z,59.16
2022-10-07T05:16:56.513Z,59.09
2022-10-07T05:19:27.760Z,58.85
2022-10-07T05:21:56.756Z,58.83
2022-10-07T05:24:27.081Z,58.84
2022-10-07T05:26:56.074Z,58.50
2022-10-07T05:29:25.268Z,58.37
2022-10-07T05:31:54.911Z,58.33
2022-10-07T05:34:25.921Z,58.18
2022-10-07T05:36:55.221Z,58.15
2022-10-07T05:39:24.011Z,58.24
2022-10-07T05:42:05.912Z,58.29
2022-10-07T05:44:39.098Z,58.37
2022-10-07T05:47:07.887Z,58.49
2022-10-07T05:49:36.599Z,58.55
2022-10-07T05:52:06.195Z,58.65
2022-10-07T05:54:35.082Z,58.55
2022-10-07T05:57:04.282Z,58.65
2022-10-07T05:59:32.861Z,58.55
2022-10-07T06:02:01.765Z,58.45
2022-10-07T06:04:30.464Z,58.65
2022-10-07T06:06:59.538Z,58.17
2022-10-07T06:09:48.598Z,57.92
2022-10-07T06:12:37.148Z,57.98
2022-10-07T06:15:10.544Z,58.03
2022-10-07T06:17:45.373Z,57.76
2022-10-07T06:20:16.111Z,57.75
2022-10-07T06:22:44.841Z,57.73
2022-10-07T06:25:14.328Z,57.84
2022-10-07T06:27:43.816Z,57.89
2022-10-07T06:30:13.625Z,57.99
2022-10-07T06:32:42.330Z,57.97
2022-10-07T06:35:11.207Z,57.89
2022-10-07T06:37:40.606Z,58.13
2022-10-07T06:40:10.419Z,57.94
2022-10-07T06:42:39.202Z,57.99
2022-10-07T06:45:32.945Z,58.20
2022-10-07T06:48:02.149Z,58.11
2022-10-07T06:50:30.865Z,58.13
2022-10-07T06:53:00.095Z,58.18
2022-10-07T06:55:29.778Z,58.22
2022-10-07T06:57:58.775Z,58.28
2022-10-07T07:00:28.187Z,58.19
2022-10-07T07:03:01.735Z,58.13
2022-10-07T07:05:41.424Z,58.08
2022-10-07T07:08:16.101Z,58.14
2022-10-07T07:10:46.582Z,58.21
2022-10-07T07:13:15.844Z,58.08
2022-10-07T07:15:54.388Z,57.96
2022-10-07T07:18:23.800Z,57.45
2022-10-07T07:20:52.825Z,57.53
2022-10-07T07:23:22.392Z,57.62
2022-10-07T07:25:51.076Z,57.40
2022-10-07T07:28:19.945Z,57.82
2022-10-07T07:30:50.590Z,57.37
2022-10-07T07:33:19.499Z,57.02
2022-10-07T07:35:48.189Z,56.81
2022-10-07T07:38:17.212Z,56.67
2022-10-07T07:40:46.167Z,56.72
2022-10-07T07:43:14.959Z,56.69
2022-10-07T07:45:44.042Z,56.72
2022-10-07T07:48:13.762Z,56.77
2022-10-07T07:50:42.428Z,56.80
2022-10-07T07:53:11.440Z,56.90
2022-10-07T07:55:39.924Z,56.64
2022-10-07T07:58:11.660Z,56.71
2022-10-07T08:00:41.092Z,56.09
2022-10-07T08:03:09.989Z,55.82
2022-10-07T08:05:39.114Z,55.38
2022-10-07T08:08:07.863Z,55.10
2022-10-07T08:10:37.676Z,55.16
2022-10-07T08:13:06.697Z,55.22
2022-10-07T08:15:35.469Z,55.16
2022-10-07T08:18:07.016Z,54.70
2022-10-07T08:20:37.300Z,54.86
2022-10-07T08:23:07.149Z,54.56
2022-10-07T08:25:35.939Z,54.63
2022-10-07T08:28:05.399Z,54.67
2022-10-07T08:30:34.241Z,54.27
2022-10-07T08:33:02.818Z,54.06
2022-10-07T08:35:31.305Z,53.94
2022-10-07T08:37:59.883Z,53.52
2022-10-07T08:40:28.391Z,53.38
2022-10-07T08:42:57.053Z,53.11
2022-10-07T08:45:32.770Z,53.08
2022-10-07T08:48:06.549Z,52.88
2022-10-07T08:50:43.502Z,52.66
2022-10-07T08:53:21.474Z,52.49
2022-10-07T08:55:56.525Z,52.31
2022-10-07T08:58:31.277Z,51.84
2022-10-07T09:01:16.049Z,51.77
2022-10-07T09:04:17.477Z,51.57
2022-10-07T09:07:01.009Z,51.75
2022-10-07T09:09:37.459Z,51.74
2022-10-07T09:12:13.100Z,50.96
2022-10-07T09:14:46.808Z,51.09
2022-10-07T09:17:35.047Z,50.63
2022-10-07T09:20:16.731Z,50.07
2022-10-07T09:22:52.742Z,49.29
2022-10-07T09:25:30.529Z,49.74
2022-10-07T09:27:59.281Z,49.56
2022-10-07T09:30:32.767Z,49.22
2022-10-07T09:33:02.322Z,49.66
2022-10-07T09:35:32.293Z,48.58
2022-10-07T09:38:09.646Z,47.83
2022-10-07T09:41:00.832Z,48.46
2022-10-07T09:43:32.767Z,47.72
2022-10-07T09:46:02.638Z,47.74
2022-10-07T09:48:35.139Z,47.44
2022-10-07T09:51:14.720Z,46.87
2022-10-07T09:54:18.867Z,47.06
2022-10-07T09:56:48.360Z,46.65
2022-10-07T09:59:21.806Z,45.84
2022-10-07T10:02:25.670Z,45.79
2022-10-07T10:04:57.009Z,45.69
2022-10-07T10:07:35.009Z,45.66
2022-10-07T10:10:23.603Z,45.47
2022-10-07T10:12:55.232Z,45.30
2022-10-07T10:15:23.716Z,44.92
2022-10-07T10:17:53.223Z,45.01
2022-10-07T10:20:27.982Z,45.45
2022-10-07T10:22:57.452Z,45.13
2022-10-07T10:25:59.008Z,44.37
2022-10-07T10:28:50.847Z,43.65
2022-10-07T10:31:30.422Z,43.95
2022-10-07T10:34:12.135Z,43.46
2022-10-07T10:36:45.979Z,43.72
2022-10-07T10:39:35.966Z,43.99
2022-10-07T10:42:12.324Z,43.43
2022-10-07T10:45:00.380Z,43.23
2022-10-07T10:47:46.364Z,43.30
2022-10-07T10:50:23.725Z,43.09
2022-10-07T10:53:05.052Z,43.33
2022-10-07T10:55:52.456Z,43.68
2022-10-07T10:58:34.876Z,42.90
2022-10-07T11:01:24.384Z,42.42
2022-10-07T11:04:15.253Z,42.51
2022-10-07T11:06:50.336Z,42.09
2022-10-07T11:09:31.480Z,42.45
2022-10-07T11:12:05.712Z,42.42
2022-10-07T11:14:53.503Z,42.29
2022-10-07T11:17:31.246Z,42.01
2022-10-07T11:20:19.574Z,41.53
2022-10-07T11:22:56.876Z,42.27
2022-10-07T11:25:51.292Z,42.90
2022-10-07T11:28:33.481Z,42.11
2022-10-07T11:31:06.287Z,42.18
2022-10-07T11:33:58.786Z,42.56
2022-10-07T11:36:33.417Z,42.62
2022-10-07T11:39:02.091Z,42.64
2022-10-07T11:41:35.642Z,42.87
2022-10-07T11:44:09.978Z,43.04
2022-10-07T11:46:47.753Z,43.07
2022-10-07T11:49:27.190Z,43.18
2022-10-07T11:52:16.850Z,42.82
2022-10-07T11:54:59.334Z,42.56
2022-10-07T11:57:33.289Z,43.04
2022-10-07T12:00:09.255Z,42.87
2022-10-07T12:02:46.608Z,42.61
2022-10-07T12:05:34.334Z,42.03
2022-10-07T12:08:31.070Z,42.20
2022-10-07T12:11:12.796Z,42.39
2022-10-07T12:13:51.881Z,42.59
2022-10-07T12:16:32.649Z,42.72
2022-10-07T12:19:07.814Z,42.67
2022-10-07T12:22:03.216Z,42.42
2022-10-07T12:24:34.929Z,42.54
2022-10-07T12:27:15.843Z,42.06
2022-10-07T12:29:44.924Z,41.65
2022-10-07T12:32:53.358Z,41.13
2022-10-07T12:35:37.524Z,41.03
2022-10-07T12:38:24.826Z,41.06
2022-10-07T12:41:26.284Z,41.20
2022-10-07T12:44:04.752Z,41.11
2022-10-07T12:46:42.295Z,40.46
2022-10-07T12:49:14.368Z,40.07
2022-10-07T12:51:44.932Z,39.91
2022-10-07T12:54:24.127Z,40.19
2022-10-07T12:56:53.532Z,40.82
2022-10-07T12:59:50.785Z,40.31
2022-10-07T13:02:25.761Z,40.59
2022-10-07T13:05:34.342Z,40.69
2022-10-07T13:08:21.887Z,40.65
2022-10-07T13:11:08.710Z,40.60
2022-10-07T13:14:06.243Z,41.14
2022-10-07T13:16:52.688Z,41.20
2022-10-07T13:19:31.272Z,41.19
2022-10-07T13:22:20.110Z,41.20
2022-10-07T13:24:51.828Z,41.31
2022-10-07T13:27:28.015Z,41.47
2022-10-07T13:29:58.696Z,41.47
2022-10-07T13:32:32.712Z,41.66
2022-10-07T13:35:30.228Z,41.50
2022-10-07T13:37:58.883Z,41.81
2022-10-07T13:40:35.846Z,41.86
2022-10-07T13:43:09.424Z,42.08
2022-10-07T13:45:45.431Z,42.32
2022-10-07T13:48:21.621Z,42.53
2022-10-07T13:50:54.524Z,42.33
2022-10-07T13:53:32.908Z,42.03
2022-10-07T13:56:28.313Z,42.14
2022-10-07T13:58:58.892Z,41.77
2022-10-07T14:01:30.723Z,41.31
2022-10-07T14:04:10.721Z,41.19
2022-10-07T14:06:51.676Z,41.31
2022-10-07T14:09:21.871Z,41.37
2022-10-07T14:12:01.025Z,41.21
2022-10-07T14:14:45.948Z,41.28
2022-10-07T14:17:26.864Z,40.94
2022-10-07T14:20:05.915Z,41.35
2022-10-07T14:22:38.890Z,41.39
2022-10-07T14:25:18.170Z,41.44
2022-10-07T14:27:47.448Z,41.56
2022-10-07T14:30:56.144Z,41.51
2022-10-07T14:34:08.809Z,41.98
2022-10-07T14:36:37.442Z,42.27
2022-10-07T14:39:23.820Z,42.25
2022-10-07T14:41:52.263Z,42.08
2022-10-07T14:44:20.911Z,42.00
2022-10-07T14:46:50.534Z,42.31
2022-10-07T14:49:19.310Z,42.24
2022-10-07T14:51:48.509Z,42.16
2022-10-07T14:54:17.202Z,42.26
2022-10-07T14:56:45.904Z,42.34
2022-10-07T14:59:15.543Z,42.44
2022-10-07T15:01:44.173Z,42.69
2022-10-07T15:04:12.941Z,42.88
2022-10-07T15:06:42.162Z,42.99
2022-10-07T15:09:13.414Z,43.13
2022-10-07T15:11:42.524Z,43.32
2022-10-07T15:14:12.155Z,43.26
2022-10-07T15:16:41.946Z,43.36
2022-10-07T15:19:10.625Z,43.39
2022-10-07T15:21:39.200Z,43.38
2022-10-07T15:24:08.295Z,43.50
2022-10-07T15:26:37.495Z,43.52
2022-10-07T15:29:08.199Z,43.73
2022-10-07T15:31:38.451Z,44.00
2022-10-07T15:34:07.687Z,44.19
2022-10-07T15:36:37.021Z,44.06
2022-10-07T15:39:05.635Z,44.05
2022-10-07T15:41:36.926Z,44.26
2022-10-07T15:44:18.266Z,44.25
2022-10-07T15:46:49.184Z,44.11
2022-10-07T15:49:18.095Z,44.26
2022-10-07T15:51:47.285Z,44.42
2022-10-07T15:54:16.627Z,44.49
2022-10-07T15:56:45.630Z,44.48
2022-10-07T15:59:14.892Z,44.50
2022-10-07T16:01:43.540Z,44.65
2022-10-07T16:04:14.144Z,44.73
2022-10-07T16:06:50.061Z,45.05
2022-10-07T16:09:22.335Z,45.08
2022-10-07T16:11:51.327Z,45.06
2022-10-07T16:14:20.947Z,45.20
2022-10-07T16:16:49.622Z,45.25
2022-10-07T16:19:18.833Z,45.39
2022-10-07T16:21:47.324Z,45.49
2022-10-07T16:24:22.008Z,45.65
2022-10-07T16:26:51.031Z,45.85
2022-10-07T16:29:41.058Z,45.87
2022-10-07T16:32:11.750Z,45.87
2022-10-07T16:34:44.841Z,45.90
2022-10-07T16:37:13.659Z,45.97
2022-10-07T16:39:42.827Z,45.90
2022-10-07T16:42:11.617Z,45.96
2022-10-07T16:44:40.315Z,45.86
2022-10-07T16:47:08.989Z,45.97
2022-10-07T16:49:37.670Z,46.08
2022-10-07T16:52:06.771Z,46.18
2022-10-07T16:54:35.871Z,46.35
2022-10-07T16:57:04.857Z,46.41
2022-10-07T16:59:33.542Z,46.53
2022-10-07T17:02:03.426Z,46.61
2022-10-07T17:04:32.042Z,46.79
2022-10-07T17:07:00.730Z,46.81
2022-10-07T17:09:29.914Z,46.74
2022-10-07T17:11:59.948Z,46.91
2022-10-07T17:14:31.878Z,46.87
2022-10-07T17:17:00.974Z,47.10
2022-10-07T17:19:29.802Z,47.17
2022-10-07T17:22:01.347Z,47.48
2022-10-07T17:24:31.346Z,47.91
2022-10-07T17:26:59.953Z,48.35
2022-10-07T17:29:29.965Z,48.95
2022-10-07T17:31:58.667Z,49.08
2022-10-07T17:34:27.546Z,48.98
2022-10-07T17:36:56.028Z,49.42
2022-10-07T17:39:24.620Z,49.23
2022-10-07T17:41:53.297Z,48.79
2022-10-07T17:44:22.085Z,48.67
2022-10-07T17:46:51.255Z,48.56
2022-10-07T17:49:19.876Z,48.87
2022-10-07T17:51:48.658Z,48.94
2022-10-07T17:54:17.753Z,49.05
2022-10-07T17:56:48.098Z,49.22
2022-10-07T17:59:17.181Z,49.53
2022-10-07T18:01:46.174Z,49.23
2022-10-07T18:04:22.413Z,49.44
2022-10-07T18:06:52.451Z,49.20
2022-10-07T18:09:22.561Z,49.51
2022-10-07T18:12:09.696Z,49.81
2022-10-07T18:14:57.218Z,49.74
2022-10-07T18:17:27.645Z,49.89
2022-10-07T18:19:57.149Z,49.98
2022-10-07T18:22:25.836Z,49.64
2022-10-07T18:24:57.393Z,50.22
2022-10-07T18:27:27.328Z,49.95
2022-10-07T18:29:57.005Z,50.20
2022-10-07T18:32:26.012Z,50.43
2022-10-07T18:34:54.698Z,50.40
2022-10-07T18:37:24.106Z,50.15
2022-10-07T18:39:52.686Z,50.29
2022-10-07T18:42:21.473Z,51.01
2022-10-07T18:44:51.081Z,51.51
2022-10-07T18:47:19.977Z,50.94
2022-10-07T18:49:48.866Z,50.46
2022-10-07T18:52:18.375Z,50.90
2022-10-07T18:54:46.958Z,50.74
2022-10-07T18:57:15.747Z,50.86
2022-10-07T18:59:44.325Z,50.95
2022-10-07T19:02:13.184Z,50.88
2022-10-07T19:04:42.418Z,50.82
2022-10-07T19:07:11.000Z,50.85
2022-10-07T19:09:39.791Z,51.08
2022-10-07T19:12:28.880Z,51.35
2022-10-07T19:14:57.541Z,51.43
2022-10-07T19:17:26.024Z,51.34
2022-10-07T19:19:54.612Z,51.65
2022-10-07T19:22:23.309Z,51.52
2022-10-07T19:25:10.421Z,52.11
2022-10-07T19:27:38.946Z,52.36
2022-10-07T19:30:09.015Z,52.50
2022-10-07T19:32:37.599Z,52.78
2022-10-07T19:35:06.694Z,52.80
2022-10-07T19:37:35.385Z,53.42
2022-10-07T19:40:04.686Z,53.70
2022-10-07T19:42:33.269Z,53.50
2022-10-07T19:45:02.465Z,54.00
2022-10-07T19:47:32.891Z,54.08
2022-10-07T19:50:02.198Z,54.51
2022-10-07T19:52:30.798Z,54.54
2022-10-07T19:54:59.329Z,54.68
2022-10-07T19:57:27.859Z,54.81
2022-10-07T19:59:56.332Z,54.89
2022-10-07T20:02:24.879Z,54.93
2022-10-07T20:04:54.224Z,55.35
2022-10-07T20:07:23.956Z,55.39
2022-10-07T20:09:52.574Z,54.93
2022-10-07T20:12:21.531Z,55.24
2022-10-07T20:14:50.207Z,55.20
2022-10-07T20:17:18.710Z,55.50
2022-10-07T20:19:47.139Z,55.57
2022-10-07T20:22:15.722Z,55.18
2022-10-07T20:24:44.601Z,55.41
2022-10-07T20:27:13.366Z,55.41
2022-10-07T20:30:02.481Z,55.59
2022-10-07T20:32:35.813Z,55.46
2022-10-07T20:35:06.955Z,55.60
2022-10-07T20:37:35.510Z,55.51
2022-10-07T20:40:23.409Z,55.64
2022-10-07T20:42:53.071Z,55.59
2022-10-07T20:45:22.124Z,55.55
2022-10-07T20:47:50.632Z,55.40
2022-10-07T20:50:19.309Z,54.87
2022-10-07T20:52:47.805Z,54.93
2022-10-07T20:55:16.658Z,54.98
2022-10-07T20:57:45.871Z,55.15
2022-10-07T21:00:17.055Z,55.12
2022-10-07T21:02:45.880Z,55.02
2022-10-07T21:05:14.711Z,55.31
2022-10-07T21:07:43.283Z,55.45
2022-10-07T21:10:11.737Z,55.44
2022-10-07T21:12:40.867Z,55.49
2022-10-07T21:15:09.780Z,55.72
2022-10-07T21:17:38.919Z,55.54
2022-10-07T21:20:07.727Z,55.48
2022-10-07T21:22:36.773Z,55.61
2022-10-07T21:25:05.600Z,55.62
2022-10-07T21:27:34.151Z,55.78
2022-10-07T21:30:02.741Z,55.93
2022-10-07T21:32:31.208Z,55.58
2022-10-07T21:34:59.769Z,55.77
2022-10-07T21:37:29.851Z,55.88
2022-10-07T21:39:59.894Z,55.78
2022-10-07T21:42:29.030Z,55.57
2022-10-07T21:44:57.580Z,55.43
2022-10-07T21:47:26.267Z,55.57
2022-10-07T21:49:57.150Z,55.58
2022-10-07T21:52:25.644Z,55.66
2022-10-07T21:54:55.586Z,55.73
2022-10-07T21:57:24.027Z,55.65
2022-10-07T21:59:53.873Z,55.67
2022-10-07T22:02:22.414Z,55.73
2022-10-07T22:04:50.980Z,55.89
2022-10-07T22:07:37.742Z,56.03
2022-10-07T22:10:06.746Z,55.78
2022-10-07T22:12:35.776Z,55.77
2022-10-07T22:15:04.462Z,55.81
2022-10-07T22:17:34.966Z,56.03
2022-10-07T22:20:03.720Z,55.97
2022-10-07T22:22:32.284Z,56.08
2022-10-07T22:25:01.588Z,56.11
2022-10-07T22:27:30.141Z,56.03
2022-10-07T22:29:58.816Z,56.22
2022-10-07T22:32:27.325Z,56.29
2022-10-07T22:35:30.909Z,56.51
2022-10-07T22:38:00.353Z,56.74
2022-10-07T22:40:29.241Z,56.92
2022-10-07T22:42:57.643Z,56.70
2022-10-07T22:45:26.211Z,56.79
2022-10-07T22:47:54.652Z,57.16
2022-10-07T22:50:23.356Z,57.33
2022-10-07T22:52:51.939Z,57.17
2022-10-07T22:55:21.759Z,57.16
2022-10-07T22:57:51.366Z,57.45
2022-10-07T23:00:21.338Z,57.41
2022-10-07T23:02:50.203Z,57.47
2022-10-07T23:05:18.822Z,57.74
2022-10-07T23:07:47.173Z,57.64
2022-10-07T23:10:16.108Z,57.98
2022-10-07T23:12:44.932Z,58.26
2022-10-07T23:15:13.628Z,58.29
2022-10-07T23:17:42.084Z,58.24
2022-10-07T23:20:10.509Z,57.95
2022-10-07T23:22:41.785Z,58.11
2022-10-07T23:25:10.290Z,58.13
2022-10-07T23:27:39.615Z,58.23
2022-10-07T23:30:09.089Z,58.46
2022-10-07T23:32:37.690Z,58.44
2022-10-07T23:35:06.574Z,58.33
2022-10-07T23:37:35.477Z,58.32
2022-10-07T23:40:04.280Z,58.47
2022-10-07T23:42:32.831Z,58.63
2022-10-07T23:45:01.769Z,58.40
2022-10-07T23:47:30.200Z,58.60
2022-10-07T23:49:58.662Z,58.40
2022-10-07T23:52:27.287Z,58.41
2022-10-07T23:54:55.801Z,58.56
2022-10-07T23:57:24.244Z,58.89
2022-10-07T23:59:52.657Z,58.77
